Aeroporto :
LOGIN :

Iscrizione | Disclaimer

   EN    FR    IT 

 










Sommario :    VFR   VFR Marginale   IFR   IFR Intensivo   IFR Molto Intensivo
Visibilità : 
Base nubi : 
>= 8 km
>= 3000ft
5 / 8 km
1000 / 3000 ft
1500m / 5 km
500 / 1000 ft
800 / 1500m
200 / 500 ft
< 800m
< 200 ft
Simboli :   Temporali  Nebbia  Neve Forte  Precipitazioni Forti  Vento > 20 kt
SIGMETs :   Varie  Temporali  Ghiacco  Turbolenza  Onda orograficha  Ceneri Vulcaniche






- Altitudine del aeroporto : 325 ft
- Codice IATA : BES


LFRB - Brest

ULTIMO METAR :
  • 212000Z AUTO 15007KT 9999 FEW034/// BKN080/// BKN200/// ///CB 06/06 Q0995 TEMPO 16015G25KT 3000 SHRA BKN012TCU

METARs OBSOLETI :
  • 211930Z AUTO 15008KT 9999 FEW027 BKN170 OVC200 06/06 Q0995 TEMPO 16015G25KT 3000 SHRA SCT012CB
  • 211900Z AUTO 16007KT 9999 SCT023 BKN031 BKN210 06/06 Q0995 TEMPO 16015G25KT 3000 SHRA SCT012CB
  • 211830Z AUTO 15007KT 6000 FEW022 SCT033 BKN043 06/06 Q0995 TEMPO 16015G25KT 3000 SHRA SCT012CB
  • 211800Z AUTO 15006KT 9999 SCT028 BKN041 06/05 Q0995 TEMPO 16015G25KT 3000 SHRA SCT012CB
  • 211730Z AUTO 15006KT CAVOK 06/05 Q0995 TEMPO 16015G25KT 3000 SHRA SCT012CB

TAF TAF LFRB
Valido dal 21 a 18 ore il 23 a 00 ore UTC


211700Z 2118/2224 16010KT 9999 SCT020 BKN030
TEMPO 2118/2212 3000 SHRA BKN012TCU
PROB30
TEMPO 2118/2124 16015G25KT TSGSRA SCT012CB
BECMG 2212/2215 -RA BKN015
TEMPO 2215/2224 4000 RA OVC010
ATIS : +33 2 98 32 02 71



MetMap, La meteo Aeronautica in un colpo d'occhio ! - Copyright ORBIFLY Dicembre 2007 - Disclaimer

ORBIFLY MET'MAP TEAM :

Programmazione e sviluppo : Alexandra Zaïnal
Concezione e sviluppo : Baudouin d'Aumeries
Co-Programmazione e sviluppo : Marc-Olivier Méhu
Supporto tecnico e logistico : Manuel Goepfert
Aiuto per la traduzione : Arnaldo La Scala

Contatto : metmap@orbifly.com




FONTI E CREDITI :

   NOAA